Accueil
METAR-TAF:

METAR-TAF

Aéroports :

Tateyama, Japon

latitude: 34-59N, longitude: 139-50E, altitude: 3 m

Observation

Le bulletin a été fait il y a 22 heures et 44 minutes, à 14:10 UTC
Vent 15 kt de ouest/sud-ouest avec des rafales jusqu'à 26 kt
Température 11°C
Humidité 50%
Pression 1012 hPa
Visibilité 10 km ou plus
Quelques nuages à une hauteur de 2000 ft
Nuages épars à une hauteur de 5000 ft

METAR: RJTE 191410Z 25015G26KT 9999 FEW020 SCT050 11/01 Q1012 RMK 1CU020 4SC050 A2989

Heure: 21:54 (12:54 UTC)


TAF: absent

Observations et prévisions météorologiques de plus de 4000 aéroports (messages METAR et TAF).

Les stations disponibles sont représentées par des disques jaunes et rouges sur la carte.

Passer la souris dessus pour voir le nom de la station.

Cliquer dessus pour voir les observations et prévisions météorologiques.

Pour changer de carte: cliquez sur les boutons verts avec une croix noire pour zoomer, sur le bouton vert avec un tiret pour effectuer un zoom arrière, ou sur les flèches vertes pour les cartes adjacentes.


METAR-TAF: